createdAt,value
2019-03-23T00:00:44.341Z,81.37
2019-03-23T00:03:16.053Z,85.30
2019-03-23T00:05:47.838Z,84.37
2019-03-23T00:08:21.404Z,82.73
2019-03-23T00:10:53.982Z,90.70
2019-03-23T00:13:29.361Z,89.47
2019-03-23T00:16:01.396Z,111.57
2019-03-23T00:18:33.303Z,106.37
2019-03-23T00:21:09.375Z,115.73
2019-03-23T00:23:41.134Z,110.90
2019-03-23T00:26:13.407Z,127.47
2019-03-23T00:28:45.182Z,104.23
2019-03-23T00:31:16.991Z,108.00
2019-03-23T00:33:48.697Z,117.93
2019-03-23T00:36:20.837Z,102.13
2019-03-23T00:38:52.751Z,107.17
2019-03-23T00:41:24.913Z,88.13
2019-03-23T00:43:56.926Z,97.97
2019-03-23T00:46:29.771Z,100.33
2019-03-23T00:49:01.722Z,96.77
2019-03-23T00:51:35.590Z,97.67
2019-03-23T00:54:10.353Z,100.00
2019-03-23T00:56:42.257Z,99.17
2019-03-23T00:59:14.071Z,102.53
2019-03-23T01:01:46.020Z,101.67
2019-03-23T01:04:17.915Z,97.27
2019-03-23T01:06:52.298Z,88.33
2019-03-23T01:09:23.233Z,101.43
2019-03-23T01:11:55.048Z,90.00
2019-03-23T01:14:26.927Z,90.50
2019-03-23T01:16:58.829Z,94.33
2019-03-23T01:19:30.633Z,86.87
2019-03-23T01:22:03.385Z,91.77
2019-03-23T01:24:35.346Z,87.80
2019-03-23T01:27:08.205Z,90.43
2019-03-23T01:29:39.975Z,91.20
2019-03-23T01:32:11.858Z,86.93
2019-03-23T01:34:43.569Z,92.13
2019-03-23T01:37:15.369Z,99.47
2019-03-23T01:39:47.510Z,83.37
2019-03-23T01:42:19.418Z,81.70
2019-03-23T01:44:52.339Z,93.87
2019-03-23T01:47:24.039Z,82.17
2019-03-23T01:49:55.857Z,83.43
2019-03-23T01:52:27.832Z,87.60
2019-03-23T01:54:59.643Z,74.90
2019-03-23T01:57:35.108Z,75.33
2019-03-23T02:00:07.428Z,76.60
2019-03-23T02:02:42.250Z,76.57
2019-03-23T02:05:20.043Z,77.63
2019-03-23T02:07:53.564Z,73.93
2019-03-23T02:10:28.355Z,79.37
2019-03-23T02:13:00.337Z,78.03
2019-03-23T02:15:32.616Z,76.83
2019-03-23T02:18:04.419Z,82.53
2019-03-23T02:20:36.321Z,76.57
2019-03-23T02:23:08.333Z,71.43
2019-03-23T02:25:40.429Z,78.97
2019-03-23T02:28:12.232Z,80.60
2019-03-23T02:30:44.014Z,74.57
2019-03-23T02:33:15.736Z,70.83
2019-03-23T02:35:47.632Z,66.57
2019-03-23T02:38:19.382Z,65.87
2019-03-23T02:40:51.382Z,65.40
2019-03-23T06:34:22.406Z,49.70
2019-03-23T06:37:02.113Z,56.67
2019-03-23T06:40:07.020Z,44.30
2019-03-23T06:42:38.907Z,45.50
2019-03-23T06:45:11.386Z,45.87
2019-03-23T06:48:10.501Z,46.00
2019-03-23T06:50:42.528Z,45.77
2019-03-23T06:53:21.812Z,40.00
2019-03-23T06:55:53.824Z,39.17
2019-03-23T06:58:27.688Z,39.03
2019-03-23T07:01:01.647Z,41.93
2019-03-23T07:03:34.324Z,33.87
2019-03-23T07:06:06.416Z,36.53
2019-03-23T07:08:42.635Z,34.87
2019-03-23T07:11:57.256Z,35.03
2019-03-23T07:14:41.412Z,31.27
2019-03-23T07:17:15.603Z,37.00
2019-03-23T07:20:01.370Z,38.77
2019-03-23T07:22:42.161Z,37.10
2019-03-23T07:25:14.451Z,31.53
2019-03-23T07:27:51.717Z,37.40
2019-03-23T07:30:24.879Z,33.03
2019-03-23T07:33:02.299Z,39.53
2019-03-23T07:35:34.433Z,36.68
2019-03-23T07:38:06.251Z,37.20
2019-03-23T07:40:38.149Z,33.35
2019-03-23T07:43:10.312Z,35.68
2019-03-23T07:45:43.653Z,34.75
2019-03-23T07:48:17.011Z,35.25
2019-03-23T07:50:48.771Z,34.65
2019-03-23T07:53:25.470Z,33.38
2019-03-23T07:56:00.914Z,35.05
2019-03-23T07:58:34.846Z,34.50
2019-03-23T08:01:06.764Z,33.70
2019-03-23T08:03:38.702Z,33.90
2019-03-23T08:06:10.669Z,33.33
2019-03-23T08:08:42.482Z,36.70
2019-03-23T08:11:14.249Z,36.93
2019-03-23T08:13:46.134Z,36.30
2019-03-23T08:16:17.935Z,38.98
2019-03-23T08:18:50.834Z,36.58
2019-03-23T08:21:22.683Z,38.30
2019-03-23T08:23:54.578Z,40.05
2019-03-23T08:26:26.397Z,39.35
2019-03-23T08:28:58.198Z,39.67
2019-03-23T08:31:30.121Z,72.53
2019-03-23T08:34:01.858Z,68.52
2019-03-23T08:36:34.821Z,62.70
2019-03-23T08:39:07.925Z,65.65
2019-03-23T08:41:39.765Z,64.07
2019-03-23T08:44:11.897Z,63.30
2019-03-23T08:46:46.397Z,60.20
2019-03-23T08:49:18.356Z,56.55
2019-03-23T08:51:51.355Z,63.20
2019-03-23T08:54:23.164Z,57.73
2019-03-23T08:56:55.106Z,54.80
2019-03-23T08:59:28.673Z,63.08
2019-03-23T09:02:01.699Z,67.12
2019-03-23T09:04:33.612Z,56.37
2019-03-23T09:07:05.780Z,57.00
2019-03-23T09:09:37.597Z,61.35
2019-03-23T09:12:09.437Z,57.90
2019-03-23T09:14:41.446Z,56.50
2019-03-23T09:17:13.386Z,54.88
2019-03-23T09:19:45.193Z,56.48
2019-03-23T09:22:17.009Z,52.53
2019-03-23T09:24:52.062Z,55.05
2019-03-23T09:27:23.852Z,55.20
2019-03-23T09:29:55.986Z,54.35
2019-03-23T09:32:30.486Z,57.08
2019-03-23T09:35:03.792Z,53.55
2019-03-23T09:37:38.345Z,63.73
2019-03-23T09:40:11.490Z,62.27
2019-03-23T09:42:44.582Z,66.67
2019-03-23T09:45:16.506Z,59.93
2019-03-23T09:47:49.418Z,62.03
2019-03-23T09:50:21.472Z,56.35
2019-03-23T09:52:53.429Z,49.45
2019-03-23T09:55:25.224Z,49.18
2019-03-23T09:57:57.174Z,51.63
2019-03-23T10:00:30.521Z,49.80
2019-03-23T10:03:03.048Z,54.05
2019-03-23T10:05:36.271Z,57.05
2019-03-23T10:08:08.352Z,53.78
2019-03-23T10:10:40.605Z,57.23
2019-03-23T10:13:12.331Z,55.65
2019-03-23T10:15:44.238Z,46.02
2019-03-23T10:18:16.096Z,57.30
2019-03-23T10:20:48.089Z,52.40
2019-03-23T10:23:20.059Z,51.88
2019-03-23T10:25:51.898Z,50.35
2019-03-23T10:28:23.638Z,51.85
2019-03-23T10:30:55.492Z,48.92
2019-03-23T10:33:27.365Z,53.35
2019-03-23T10:35:59.381Z,53.30
2019-03-23T10:38:31.764Z,56.85
2019-03-23T10:41:03.808Z,52.58
2019-03-23T10:43:35.793Z,52.33
2019-03-23T10:46:07.597Z,45.88
2019-03-23T10:48:47.735Z,41.48
2019-03-23T10:51:19.447Z,46.75
2019-03-23T10:53:51.413Z,45.45
2019-03-23T10:56:23.220Z,49.35
2019-03-23T11:00:51.366Z,48.60
2019-03-23T11:05:36.626Z,41.00
2019-03-23T11:08:32.427Z,42.00
2019-03-23T11:11:12.795Z,44.05
2019-03-23T11:13:44.964Z,45.60
2019-03-23T11:16:22.931Z,42.13
2019-03-23T11:19:53.595Z,43.33
2019-03-23T11:22:53.978Z,42.88
2019-03-23T11:25:50.297Z,42.78
2019-03-23T11:28:18.816Z,44.08
2019-03-23T11:30:50.925Z,45.70
2019-03-23T11:34:06.384Z,45.08
2019-03-23T11:36:47.516Z,44.98
2019-03-23T11:39:19.415Z,42.13
2019-03-23T11:41:51.584Z,40.67
2019-03-23T11:44:23.471Z,43.70
2019-03-23T11:46:55.363Z,45.78
2019-03-23T11:49:27.391Z,45.03
2019-03-23T11:52:02.787Z,39.67
2019-03-23T11:54:35.316Z,43.65
2019-03-23T11:57:07.206Z,38.02
2019-03-23T11:59:39.233Z,44.88
2019-03-23T12:02:11.683Z,41.53
2019-03-23T12:04:43.555Z,45.85
2019-03-23T12:07:15.441Z,41.60
2019-03-23T12:09:47.287Z,41.75
2019-03-23T12:12:19.182Z,42.03
2019-03-23T12:14:51.215Z,37.48
2019-03-23T12:17:23.100Z,42.45
2019-03-23T12:20:04.136Z,41.98
2019-03-23T12:22:40.661Z,43.65
2019-03-23T12:25:14.130Z,50.88
2019-03-23T12:27:45.970Z,44.05
2019-03-23T12:30:18.229Z,46.98
2019-03-23T12:32:50.125Z,49.08
2019-03-23T12:35:22.365Z,50.15
2019-03-23T12:37:54.199Z,52.03
2019-03-23T12:40:26.107Z,48.80
2019-03-23T12:42:58.433Z,50.48
2019-03-23T12:45:30.898Z,53.95
2019-03-23T12:48:02.834Z,51.23
2019-03-23T12:50:36.101Z,53.70
2019-03-23T12:53:07.990Z,58.58
2019-03-23T12:55:40.133Z,57.15
2019-03-23T12:58:11.942Z,51.90
2019-03-23T13:00:43.752Z,59.10
2019-03-23T13:03:16.368Z,53.68
2019-03-23T13:05:53.489Z,52.20
2019-03-23T13:08:24.997Z,53.58
2019-03-23T13:10:56.817Z,56.25
2019-03-23T13:13:28.835Z,56.33
2019-03-23T13:16:00.756Z,53.35
2019-03-23T13:18:33.653Z,50.95
2019-03-23T13:21:05.477Z,61.08
2019-03-23T13:23:37.551Z,55.83
2019-03-23T13:26:11.342Z,58.28
2019-03-23T13:28:43.287Z,53.38
2019-03-23T13:31:15.468Z,56.83
2019-03-23T13:33:47.391Z,60.23
2019-03-23T13:36:19.253Z,62.03
2019-03-23T13:38:51.281Z,60.40
2019-03-23T13:41:23.513Z,63.52
2019-03-23T13:43:55.373Z,60.52
2019-03-23T13:46:27.465Z,58.95
2019-03-23T13:48:59.492Z,62.33
2019-03-23T13:51:31.573Z,68.83
2019-03-23T13:54:03.645Z,65.28
2019-03-23T13:56:36.182Z,59.38
2019-03-23T13:59:08.205Z,54.73
2019-03-23T14:01:40.849Z,60.17
2019-03-23T14:04:13.765Z,58.40
2019-03-23T14:06:47.163Z,54.25
2019-03-23T14:09:19.526Z,59.85
2019-03-23T14:11:55.291Z,63.85
2019-03-23T14:14:24.787Z,61.63
2019-03-23T14:16:56.569Z,56.30
2019-03-23T14:19:28.557Z,62.33
2019-03-23T14:24:57.869Z,55.00
2019-03-23T14:27:29.647Z,55.20
2019-03-23T14:30:01.599Z,52.60
2019-03-23T14:32:33.928Z,57.55
2019-03-23T14:35:05.956Z,56.45
2019-03-23T14:37:38.135Z,56.15
2019-03-23T14:40:10.280Z,53.78
2019-03-23T14:42:42.845Z,48.13
2019-03-23T14:45:14.618Z,43.83
2019-03-23T14:47:46.565Z,46.92
2019-03-23T14:50:18.460Z,41.95
2019-03-23T14:52:50.452Z,39.48
2019-03-23T14:55:22.423Z,44.30
2019-03-23T14:57:54.357Z,41.68
2019-03-23T15:00:34.082Z,40.58
2019-03-23T15:03:06.251Z,39.40
2019-03-23T15:05:45.397Z,41.75
2019-03-23T15:08:17.419Z,39.67
2019-03-23T15:10:49.579Z,41.83
2019-03-23T15:13:21.575Z,41.13
2019-03-23T15:15:53.822Z,39.73
2019-03-23T15:18:25.655Z,40.85
2019-03-23T15:20:57.797Z,38.50
2019-03-23T15:23:29.705Z,37.65
2019-03-23T15:26:01.716Z,37.20
2019-03-23T15:28:33.617Z,48.48
2019-03-23T15:31:05.734Z,37.98
2019-03-23T15:33:39.602Z,41.92
2019-03-23T15:36:11.848Z,39.08
2019-03-23T15:38:44.486Z,40.63
2019-03-23T15:41:16.663Z,40.00
2019-03-23T15:43:48.630Z,40.95
2019-03-23T15:46:20.687Z,41.83
2019-03-23T15:48:52.904Z,37.30
2019-03-23T15:51:26.604Z,45.12
2019-03-23T15:53:59.587Z,42.93
2019-03-23T15:56:31.875Z,40.23
2019-03-23T15:59:03.836Z,45.52
2019-03-23T16:01:35.728Z,47.83
2019-03-23T16:04:08.193Z,41.55
2019-03-23T16:06:40.095Z,39.92
2019-03-23T16:09:12.001Z,41.70
2019-03-23T16:11:43.834Z,46.92
2019-03-23T16:14:15.778Z,40.12
2019-03-23T16:16:47.735Z,40.12
2019-03-23T16:19:19.645Z,43.05
2019-03-23T16:21:51.524Z,41.13
2019-03-23T16:24:23.321Z,43.02
2019-03-23T16:26:55.368Z,42.98
2019-03-23T16:29:27.391Z,44.27
2019-03-23T16:31:59.337Z,54.20
2019-03-23T16:34:31.641Z,64.20
2019-03-23T16:37:03.702Z,70.47
2019-03-23T16:39:35.579Z,79.90
2019-03-23T16:42:07.442Z,82.35
2019-03-23T16:44:41.693Z,90.97
2019-03-23T16:47:13.801Z,81.35
2019-03-23T16:49:46.034Z,89.70
2019-03-23T16:52:18.196Z,92.82
2019-03-23T16:54:50.650Z,96.97
2019-03-23T16:57:23.651Z,82.15
2019-03-23T16:59:57.373Z,87.78
2019-03-23T17:02:29.479Z,91.35
2019-03-23T17:05:02.281Z,95.75
2019-03-23T17:07:34.899Z,98.62
2019-03-23T17:10:07.357Z,106.30
2019-03-23T17:12:39.385Z,103.40
2019-03-23T17:15:11.682Z,108.70
2019-03-23T17:17:44.022Z,101.40
2019-03-23T17:20:15.811Z,96.07
2019-03-23T17:22:47.931Z,88.22
2019-03-23T17:25:19.762Z,80.60
2019-03-23T17:27:51.682Z,83.40
2019-03-23T17:30:23.477Z,72.87
2019-03-23T17:32:55.420Z,69.03
2019-03-23T17:35:28.625Z,77.73
2019-03-23T17:38:00.535Z,78.20
2019-03-23T17:40:32.762Z,72.67
2019-03-23T17:43:06.174Z,69.63
2019-03-23T17:45:38.481Z,66.42
2019-03-23T17:48:10.583Z,69.97
2019-03-23T17:50:42.511Z,70.45
2019-03-23T17:53:14.617Z,69.47
2019-03-23T17:55:46.564Z,59.90
2019-03-23T17:58:18.368Z,60.37
2019-03-23T18:00:51.001Z,59.37
2019-03-23T18:03:22.982Z,60.60
2019-03-23T18:05:55.070Z,53.07
2019-03-23T18:08:26.963Z,59.23
2019-03-23T18:10:58.884Z,48.37
2019-03-23T18:13:31.376Z,46.03
2019-03-23T18:16:03.958Z,44.37
2019-03-23T18:18:35.904Z,37.70
2019-03-23T18:21:07.890Z,30.43
2019-03-23T18:23:39.911Z,32.00
2019-03-23T18:26:13.230Z,27.50
2019-03-23T18:28:46.581Z,24.57
2019-03-23T18:31:20.725Z,26.97
2019-03-23T18:33:53.506Z,28.57
2019-03-23T18:36:26.690Z,22.70
2019-03-23T18:38:58.780Z,29.70
2019-03-23T18:41:30.680Z,26.17
2019-03-23T18:44:02.728Z,25.93
2019-03-23T18:46:34.561Z,28.27
2019-03-23T18:49:06.579Z,24.43
2019-03-23T18:51:38.750Z,28.43
2019-03-23T18:54:10.806Z,28.80
2019-03-23T18:56:43.585Z,25.40
2019-03-23T18:59:15.579Z,25.30
2019-03-23T19:01:47.817Z,23.50
2019-03-23T19:04:19.776Z,26.77
2019-03-23T19:06:51.729Z,28.60
2019-03-23T19:09:23.542Z,27.30
2019-03-23T19:11:55.373Z,26.70
2019-03-23T19:14:27.454Z,28.17
2019-03-23T19:16:59.393Z,23.23
2019-03-23T19:19:32.082Z,28.97
2019-03-23T19:22:05.773Z,34.07
2019-03-23T19:24:41.574Z,34.87
2019-03-23T19:27:13.619Z,34.70
2019-03-23T19:29:45.612Z,35.77
2019-03-23T19:32:17.526Z,34.90
2019-03-23T19:34:49.349Z,34.23
2019-03-23T19:37:21.485Z,35.90
2019-03-23T19:39:53.418Z,35.03
2019-03-23T19:42:25.401Z,39.40
2019-03-23T19:44:57.345Z,35.83
2019-03-23T19:47:29.273Z,39.23
2019-03-23T19:50:01.374Z,38.30
2019-03-23T19:52:35.542Z,39.63
2019-03-23T19:55:07.840Z,42.10
2019-03-23T19:57:40.105Z,47.70
2019-03-23T20:00:12.612Z,40.83
2019-03-23T20:02:44.622Z,41.57
2019-03-23T20:05:16.532Z,45.70
2019-03-23T20:07:48.365Z,44.03
2019-03-23T20:10:21.344Z,46.50
2019-03-23T20:12:53.214Z,42.63
2019-03-23T20:15:25.320Z,46.93
2019-03-23T20:17:57.434Z,46.93
2019-03-23T20:20:33.908Z,46.40
2019-03-23T20:23:48.438Z,45.33
2019-03-23T20:26:20.351Z,48.40
2019-03-23T20:28:54.919Z,41.80
2019-03-23T20:31:28.118Z,43.90
2019-03-23T20:34:26.029Z,50.73
2019-03-23T20:39:51.875Z,53.43
2019-03-23T20:42:52.244Z,44.63
2019-03-23T20:45:49.287Z,54.93
2019-03-23T20:48:38.061Z,44.07
2019-03-23T20:51:07.978Z,46.27
2019-03-23T20:54:17.877Z,49.03
2019-03-23T20:56:53.191Z,46.60
2019-03-23T20:59:42.668Z,49.30
2019-03-23T21:02:12.008Z,44.57
2019-03-23T21:04:43.978Z,46.33
2019-03-23T21:07:16.048Z,52.03
2019-03-23T21:09:48.134Z,54.50
2019-03-23T21:12:20.260Z,47.87
2019-03-23T21:14:52.298Z,56.70
2019-03-23T21:17:24.191Z,51.87
2019-03-23T21:19:56.121Z,52.23
2019-03-23T21:22:28.150Z,54.90
2019-03-23T21:25:00.008Z,51.47
2019-03-23T21:27:32.478Z,49.20
2019-03-23T21:30:05.098Z,48.23
2019-03-23T21:32:38.000Z,49.87
2019-03-23T21:35:10.570Z,50.90
2019-03-23T21:37:42.686Z,43.60
2019-03-23T21:40:15.576Z,56.23
2019-03-23T21:42:47.486Z,48.93
2019-03-23T21:45:19.424Z,49.27
2019-03-23T21:47:51.344Z,47.90
2019-03-23T21:50:23.327Z,49.63
2019-03-23T21:52:55.433Z,48.30
2019-03-23T21:55:29.264Z,50.30
2019-03-23T21:58:01.241Z,49.53
2019-03-23T22:00:34.646Z,49.37
2019-03-23T22:03:06.834Z,47.20
2019-03-23T22:37:08.169Z,43.50
2019-03-23T22:39:40.238Z,53.40
2019-03-23T22:42:14.725Z,52.93
2019-03-23T22:44:52.396Z,56.57
2019-03-23T22:47:20.216Z,53.10
2019-03-23T22:49:52.081Z,53.60
2019-03-23T22:52:25.025Z,51.43
2019-03-23T22:54:57.153Z,48.60
2019-03-23T22:57:29.048Z,51.73
2019-03-23T23:00:01.344Z,57.77
2019-03-23T23:02:35.332Z,54.97
2019-03-23T23:05:10.477Z,47.17
2019-03-23T23:07:42.428Z,47.97
2019-03-23T23:10:14.520Z,49.70
2019-03-23T23:12:47.373Z,52.23
2019-03-23T23:15:19.177Z,55.30
2019-03-23T23:17:51.469Z,56.87
2019-03-23T23:20:23.294Z,53.07
2019-03-23T23:22:58.624Z,52.60
2019-03-23T23:25:31.044Z,60.03
2019-03-23T23:28:03.143Z,56.93
2019-03-23T23:30:36.356Z,49.60
2019-03-23T23:33:09.307Z,59.13
2019-03-23T23:35:42.236Z,60.77
2019-03-23T23:38:14.687Z,59.17
2019-03-23T23:40:46.497Z,54.47
2019-03-23T23:43:19.407Z,48.57
2019-03-23T23:45:52.547Z,59.60
2019-03-23T23:48:24.539Z,53.10
2019-03-23T23:50:56.488Z,54.23
2019-03-23T23:53:28.513Z,55.23
2019-03-23T23:56:00.409Z,58.77
2019-03-23T23:58:32.384Z,56.17
